sensor_id;sensor_type;location;lat;lon;timestamp;P1;durP1;ratioP1;P2;durP2;ratioP2
60078;SDS011;45951;45.824;8.824;2023-02-15T00:05:35;15.60;;;7.85;;
60078;SDS011;45951;45.824;8.824;2023-02-15T00:11:36;11.35;;;6.80;;
60078;SDS011;45951;45.824;8.824;2023-02-15T00:17:43;12.13;;;7.10;;
60078;SDS011;45951;45.824;8.824;2023-02-15T00:23:43;11.82;;;6.63;;
60078;SDS011;45951;45.824;8.824;2023-02-15T00:29:44;11.73;;;7.10;;
60078;SDS011;45951;45.824;8.824;2023-02-15T00:35:44;11.77;;;7.07;;
60078;SDS011;45951;45.824;8.824;2023-02-15T00:41:45;10.55;;;5.90;;
60078;SDS011;45951;45.824;8.824;2023-02-15T00:47:46;11.82;;;6.65;;
60078;SDS011;45951;45.824;8.824;2023-02-15T00:53:46;11.93;;;6.97;;
60078;SDS011;45951;45.824;8.824;2023-02-15T00:59:46;11.20;;;6.47;;
60078;SDS011;45951;45.824;8.824;2023-02-15T01:05:47;11.77;;;6.95;;
60078;SDS011;45951;45.824;8.824;2023-02-15T01:11:48;11.00;;;6.50;;
60078;SDS011;45951;45.824;8.824;2023-02-15T01:17:48;9.02;;;4.97;;
60078;SDS011;45951;45.824;8.824;2023-02-15T01:23:53;7.30;;;4.50;;
60078;SDS011;45951;45.824;8.824;2023-02-15T01:29:53;8.18;;;4.13;;
60078;SDS011;45951;45.824;8.824;2023-02-15T01:35:57;6.88;;;3.97;;
60078;SDS011;45951;45.824;8.824;2023-02-15T01:41:57;7.28;;;3.88;;
60078;SDS011;45951;45.824;8.824;2023-02-15T01:47:58;8.02;;;3.97;;
60078;SDS011;45951;45.824;8.824;2023-02-15T01:54:16;9.23;;;5.15;;
60078;SDS011;45951;45.824;8.824;2023-02-15T02:00:21;11.20;;;5.47;;
60078;SDS011;45951;45.824;8.824;2023-02-15T02:06:21;9.82;;;5.45;;
60078;SDS011;45951;45.824;8.824;2023-02-15T02:12:22;12.10;;;6.68;;
60078;SDS011;45951;45.824;8.824;2023-02-15T02:30:50;10.38;;;5.50;;
60078;SDS011;45951;45.824;8.824;2023-02-15T02:36:58;13.20;;;6.93;;
60078;SDS011;45951;45.824;8.824;2023-02-15T02:49:35;12.75;;;6.97;;
60078;SDS011;45951;45.824;8.824;2023-02-15T02:55:42;10.98;;;6.13;;
60078;SDS011;45951;45.824;8.824;2023-02-15T03:01:49;10.85;;;5.82;;
60078;SDS011;45951;45.824;8.824;2023-02-15T03:07:52;9.50;;;5.65;;
60078;SDS011;45951;45.824;8.824;2023-02-15T03:13:53;9.68;;;5.28;;
60078;SDS011;45951;45.824;8.824;2023-02-15T03:19:54;11.80;;;6.07;;
60078;SDS011;45951;45.824;8.824;2023-02-15T03:26:02;8.07;;;5.32;;
60078;SDS011;45951;45.824;8.824;2023-02-15T03:32:04;10.70;;;5.93;;
60078;SDS011;45951;45.824;8.824;2023-02-15T03:38:07;8.38;;;4.40;;
60078;SDS011;45951;45.824;8.824;2023-02-15T03:44:11;7.57;;;4.53;;
60078;SDS011;45951;45.824;8.824;2023-02-15T03:50:17;7.93;;;4.15;;
60078;SDS011;45951;45.824;8.824;2023-02-15T03:56:39;9.52;;;4.82;;
60078;SDS011;45951;45.824;8.824;2023-02-15T04:03:27;7.35;;;4.40;;
60078;SDS011;45951;45.824;8.824;2023-02-15T04:09:20;6.90;;;4.00;;
60078;SDS011;45951;45.824;8.824;2023-02-15T04:15:39;6.65;;;3.92;;
60078;SDS011;45951;45.824;8.824;2023-02-15T04:21:57;8.07;;;4.85;;
60078;SDS011;45951;45.824;8.824;2023-02-15T04:28:16;9.40;;;4.70;;
60078;SDS011;45951;45.824;8.824;2023-02-15T04:34:17;8.50;;;4.32;;
60078;SDS011;45951;45.824;8.824;2023-02-15T04:40:17;10.00;;;5.00;;
60078;SDS011;45951;45.824;8.824;2023-02-15T04:46:18;9.82;;;5.07;;
60078;SDS011;45951;45.824;8.824;2023-02-15T04:52:18;8.85;;;5.07;;
60078;SDS011;45951;45.824;8.824;2023-02-15T04:58:18;8.63;;;4.32;;
60078;SDS011;45951;45.824;8.824;2023-02-15T05:04:19;8.48;;;4.70;;
60078;SDS011;45951;45.824;8.824;2023-02-15T05:10:19;7.05;;;4.15;;
60078;SDS011;45951;45.824;8.824;2023-02-15T05:16:19;8.68;;;4.32;;
60078;SDS011;45951;45.824;8.824;2023-02-15T05:22:20;8.30;;;3.63;;
60078;SDS011;45951;45.824;8.824;2023-02-15T05:28:20;9.27;;;4.35;;
60078;SDS011;45951;45.824;8.824;2023-02-15T05:34:21;7.85;;;4.70;;
60078;SDS011;45951;45.824;8.824;2023-02-15T05:40:21;10.50;;;5.13;;
60078;SDS011;45951;45.824;8.824;2023-02-15T05:46:22;8.20;;;4.00;;
60078;SDS011;45951;45.824;8.824;2023-02-15T05:52:22;12.18;;;3.72;;
60078;SDS011;45951;45.824;8.824;2023-02-15T05:58:22;9.95;;;3.97;;
60078;SDS011;45951;45.824;8.824;2023-02-15T06:04:23;7.95;;;3.55;;
60078;SDS011;45951;45.824;8.824;2023-02-15T06:10:23;12.52;;;4.22;;
60078;SDS011;45951;45.824;8.824;2023-02-15T06:16:24;7.95;;;3.85;;
60078;SDS011;45951;45.824;8.824;2023-02-15T06:22:24;16.13;;;4.53;;
60078;SDS011;45951;45.824;8.824;2023-02-15T06:28:24;8.68;;;4.35;;
60078;SDS011;45951;45.824;8.824;2023-02-15T06:34:25;6.80;;;4.10;;
60078;SDS011;45951;45.824;8.824;2023-02-15T06:40:25;9.90;;;3.95;;
60078;SDS011;45951;45.824;8.824;2023-02-15T06:46:26;9.00;;;4.00;;
60078;SDS011;45951;45.824;8.824;2023-02-15T06:52:26;9.75;;;3.65;;
60078;SDS011;45951;45.824;8.824;2023-02-15T06:58:27;6.23;;;3.37;;
60078;SDS011;45951;45.824;8.824;2023-02-15T07:04:27;5.22;;;3.30;;
60078;SDS011;45951;45.824;8.824;2023-02-15T07:10:29;11.82;;;5.10;;
60078;SDS011;45951;45.824;8.824;2023-02-15T07:16:29;9.63;;;4.67;;
60078;SDS011;45951;45.824;8.824;2023-02-15T07:22:30;8.75;;;3.92;;
60078;SDS011;45951;45.824;8.824;2023-02-15T07:28:30;12.75;;;4.70;;
60078;SDS011;45951;45.824;8.824;2023-02-15T07:34:31;13.43;;;6.68;;
60078;SDS011;45951;45.824;8.824;2023-02-15T07:40:31;9.50;;;5.30;;
60078;SDS011;45951;45.824;8.824;2023-02-15T07:46:32;10.88;;;5.90;;
60078;SDS011;45951;45.824;8.824;2023-02-15T07:52:32;12.73;;;6.15;;
60078;SDS011;45951;45.824;8.824;2023-02-15T07:58:33;12.85;;;7.35;;
60078;SDS011;45951;45.824;8.824;2023-02-15T08:04:52;12.40;;;5.93;;
60078;SDS011;45951;45.824;8.824;2023-02-15T08:10:52;9.57;;;5.68;;
60078;SDS011;45951;45.824;8.824;2023-02-15T08:17:11;9.38;;;5.55;;
60078;SDS011;45951;45.824;8.824;2023-02-15T08:23:12;11.73;;;5.53;;
60078;SDS011;45951;45.824;8.824;2023-02-15T08:29:13;10.13;;;5.57;;
60078;SDS011;45951;45.824;8.824;2023-02-15T08:35:14;11.25;;;6.03;;
60078;SDS011;45951;45.824;8.824;2023-02-15T08:41:19;11.90;;;7.43;;
60078;SDS011;45951;45.824;8.824;2023-02-15T08:47:20;10.95;;;5.80;;
60078;SDS011;45951;45.824;8.824;2023-02-15T08:53:21;8.60;;;5.47;;
60078;SDS011;45951;45.824;8.824;2023-02-15T08:59:22;8.05;;;3.88;;
60078;SDS011;45951;45.824;8.824;2023-02-15T09:05:22;8.35;;;4.07;;
60078;SDS011;45951;45.824;8.824;2023-02-15T09:11:24;8.90;;;5.63;;
60078;SDS011;45951;45.824;8.824;2023-02-15T09:17:25;6.78;;;4.00;;
60078;SDS011;45951;45.824;8.824;2023-02-15T09:23:26;8.05;;;4.47;;
60078;SDS011;45951;45.824;8.824;2023-02-15T09:29:27;10.60;;;4.95;;
60078;SDS011;45951;45.824;8.824;2023-02-15T09:35:28;10.30;;;5.20;;
60078;SDS011;45951;45.824;8.824;2023-02-15T10:31:25;17.73;;;8.68;;
60078;SDS011;45951;45.824;8.824;2023-02-15T10:37:46;15.88;;;8.35;;
60078;SDS011;45951;45.824;8.824;2023-02-15T10:50:34;16.15;;;9.50;;
60078;SDS011;45951;45.824;8.824;2023-02-15T10:56:38;14.30;;;7.85;;
60078;SDS011;45951;45.824;8.824;2023-02-15T11:02:51;12.13;;;7.30;;
60078;SDS011;45951;45.824;8.824;2023-02-15T11:09:09;11.82;;;6.57;;
60078;SDS011;45951;45.824;8.824;2023-02-15T11:15:25;12.80;;;7.90;;
60078;SDS011;45951;45.824;8.824;2023-02-15T11:21:39;13.75;;;7.32;;
60078;SDS011;45951;45.824;8.824;2023-02-15T11:27:42;16.63;;;6.97;;
60078;SDS011;45951;45.824;8.824;2023-02-15T11:33:45;14.10;;;7.45;;
60078;SDS011;45951;45.824;8.824;2023-02-15T11:39:48;11.55;;;6.65;;
60078;SDS011;45951;45.824;8.824;2023-02-15T11:45:51;12.63;;;7.03;;
60078;SDS011;45951;45.824;8.824;2023-02-15T11:51:52;10.48;;;5.88;;
60078;SDS011;45951;45.824;8.824;2023-02-15T11:58:01;10.88;;;6.47;;
60078;SDS011;45951;45.824;8.824;2023-02-15T12:16:26;12.50;;;6.80;;
60078;SDS011;45951;45.824;8.824;2023-02-15T12:22:29;10.88;;;5.93;;
60078;SDS011;45951;45.824;8.824;2023-02-15T12:28:41;10.77;;;6.32;;
60078;SDS011;45951;45.824;8.824;2023-02-15T12:34:44;12.02;;;6.93;;
60078;SDS011;45951;45.824;8.824;2023-02-15T12:41:00;10.52;;;5.65;;
60078;SDS011;45951;45.824;8.824;2023-02-15T12:47:03;10.32;;;5.57;;
60078;SDS011;45951;45.824;8.824;2023-02-15T12:53:20;8.30;;;5.30;;
60078;SDS011;45951;45.824;8.824;2023-02-15T12:59:25;8.98;;;5.15;;
60078;SDS011;45951;45.824;8.824;2023-02-15T13:05:30;8.75;;;5.60;;
60078;SDS011;45951;45.824;8.824;2023-02-15T13:11:35;9.15;;;6.10;;
60078;SDS011;45951;45.824;8.824;2023-02-15T13:17:37;9.95;;;5.95;;
60078;SDS011;45951;45.824;8.824;2023-02-15T13:23:37;10.07;;;6.38;;
60078;SDS011;45951;45.824;8.824;2023-02-15T13:29:39;11.25;;;6.22;;
60078;SDS011;45951;45.824;8.824;2023-02-15T13:35:42;11.38;;;6.80;;
60078;SDS011;45951;45.824;8.824;2023-02-15T14:19:29;11.13;;;6.90;;
60078;SDS011;45951;45.824;8.824;2023-02-15T14:25:36;12.15;;;6.90;;
60078;SDS011;45951;45.824;8.824;2023-02-15T14:31:41;10.75;;;6.55;;
60078;SDS011;45951;45.824;8.824;2023-02-15T14:37:52;13.70;;;7.63;;
60078;SDS011;45951;45.824;8.824;2023-02-15T14:56:37;14.90;;;8.00;;
60078;SDS011;45951;45.824;8.824;2023-02-15T15:02:43;13.68;;;8.75;;
60078;SDS011;45951;45.824;8.824;2023-02-15T15:08:46;14.45;;;8.27;;
60078;SDS011;45951;45.824;8.824;2023-02-15T15:14:46;17.25;;;8.45;;
60078;SDS011;45951;45.824;8.824;2023-02-15T15:20:48;18.75;;;9.18;;
60078;SDS011;45951;45.824;8.824;2023-02-15T15:26:49;18.17;;;9.65;;
60078;SDS011;45951;45.824;8.824;2023-02-15T15:40:13;16.75;;;9.27;;
60078;SDS011;45951;45.824;8.824;2023-02-15T15:46:38;19.63;;;10.82;;
60078;SDS011;45951;45.824;8.824;2023-02-15T15:52:53;20.73;;;11.65;;
60078;SDS011;45951;45.824;8.824;2023-02-15T15:58:56;22.25;;;12.38;;
60078;SDS011;45951;45.824;8.824;2023-02-15T16:05:08;19.63;;;10.55;;
60078;SDS011;45951;45.824;8.824;2023-02-15T16:11:25;21.60;;;10.93;;
60078;SDS011;45951;45.824;8.824;2023-02-15T16:17:28;18.52;;;10.60;;
60078;SDS011;45951;45.824;8.824;2023-02-15T16:29:35;17.05;;;9.77;;
60078;SDS011;45951;45.824;8.824;2023-02-15T16:35:52;23.30;;;11.00;;
60078;SDS011;45951;45.824;8.824;2023-02-15T16:41:54;25.63;;;11.63;;
60078;SDS011;45951;45.824;8.824;2023-02-15T16:47:56;24.80;;;11.00;;
60078;SDS011;45951;45.824;8.824;2023-02-15T16:53:58;27.13;;;11.68;;
60078;SDS011;45951;45.824;8.824;2023-02-15T17:00:06;25.13;;;10.33;;
60078;SDS011;45951;45.824;8.824;2023-02-15T17:06:19;21.75;;;11.15;;
60078;SDS011;45951;45.824;8.824;2023-02-15T17:12:43;23.20;;;11.32;;
60078;SDS011;45951;45.824;8.824;2023-02-15T17:18:44;22.58;;;11.85;;
60078;SDS011;45951;45.824;8.824;2023-02-15T17:24:45;22.30;;;11.77;;
60078;SDS011;45951;45.824;8.824;2023-02-15T17:30:45;26.27;;;12.80;;
60078;SDS011;45951;45.824;8.824;2023-02-15T17:36:56;25.35;;;13.00;;
60078;SDS011;45951;45.824;8.824;2023-02-15T17:42:58;25.40;;;13.27;;
60078;SDS011;45951;45.824;8.824;2023-02-15T17:48:59;25.88;;;13.38;;
60078;SDS011;45951;45.824;8.824;2023-02-15T17:55:00;26.98;;;14.40;;
60078;SDS011;45951;45.824;8.824;2023-02-15T18:01:26;26.25;;;13.77;;
60078;SDS011;45951;45.824;8.824;2023-02-15T18:07:45;28.42;;;15.25;;
60078;SDS011;45951;45.824;8.824;2023-02-15T18:14:05;33.72;;;17.13;;
60078;SDS011;45951;45.824;8.824;2023-02-15T18:20:22;32.95;;;18.42;;
60078;SDS011;45951;45.824;8.824;2023-02-15T18:26:26;34.97;;;21.08;;
60078;SDS011;45951;45.824;8.824;2023-02-15T18:32:34;32.97;;;20.63;;
60078;SDS011;45951;45.824;8.824;2023-02-15T18:38:35;33.92;;;19.98;;
60078;SDS011;45951;45.824;8.824;2023-02-15T18:44:36;29.43;;;17.60;;
60078;SDS011;45951;45.824;8.824;2023-02-15T18:50:36;32.25;;;17.48;;
60078;SDS011;45951;45.824;8.824;2023-02-15T18:56:37;26.40;;;15.82;;
60078;SDS011;45951;45.824;8.824;2023-02-15T19:02:37;26.45;;;14.50;;
60078;SDS011;45951;45.824;8.824;2023-02-15T19:08:38;25.88;;;15.18;;
60078;SDS011;45951;45.824;8.824;2023-02-15T19:14:38;25.35;;;14.18;;
60078;SDS011;45951;45.824;8.824;2023-02-15T19:20:43;22.88;;;13.00;;
60078;SDS011;45951;45.824;8.824;2023-02-15T19:26:44;20.25;;;11.88;;
60078;SDS011;45951;45.824;8.824;2023-02-15T19:32:45;19.00;;;11.98;;
60078;SDS011;45951;45.824;8.824;2023-02-15T19:38:46;21.13;;;11.73;;
60078;SDS011;45951;45.824;8.824;2023-02-15T19:44:50;20.10;;;11.60;;
60078;SDS011;45951;45.824;8.824;2023-02-15T19:50:50;21.85;;;11.73;;
60078;SDS011;45951;45.824;8.824;2023-02-15T19:56:51;21.05;;;11.77;;
60078;SDS011;45951;45.824;8.824;2023-02-15T20:02:52;22.53;;;11.47;;
60078;SDS011;45951;45.824;8.824;2023-02-15T20:08:53;23.30;;;11.25;;
60078;SDS011;45951;45.824;8.824;2023-02-15T20:14:55;18.00;;;10.55;;
60078;SDS011;45951;45.824;8.824;2023-02-15T20:20:55;18.60;;;10.07;;
60078;SDS011;45951;45.824;8.824;2023-02-15T20:26:56;17.85;;;10.38;;
60078;SDS011;45951;45.824;8.824;2023-02-15T20:32:58;18.15;;;10.65;;
60078;SDS011;45951;45.824;8.824;2023-02-15T20:38:59;17.03;;;10.30;;
60078;SDS011;45951;45.824;8.824;2023-02-15T20:45:01;21.27;;;11.23;;
60078;SDS011;45951;45.824;8.824;2023-02-15T20:51:17;17.95;;;10.43;;
60078;SDS011;45951;45.824;8.824;2023-02-15T20:57:19;25.27;;;11.63;;
60078;SDS011;45951;45.824;8.824;2023-02-15T21:03:20;23.77;;;11.52;;
60078;SDS011;45951;45.824;8.824;2023-02-15T21:09:23;19.92;;;10.65;;
60078;SDS011;45951;45.824;8.824;2023-02-15T21:21:28;18.38;;;10.85;;
60078;SDS011;45951;45.824;8.824;2023-02-15T21:27:28;17.42;;;10.30;;
60078;SDS011;45951;45.824;8.824;2023-02-15T21:33:28;18.25;;;10.88;;
60078;SDS011;45951;45.824;8.824;2023-02-15T21:39:29;17.50;;;10.23;;
60078;SDS011;45951;45.824;8.824;2023-02-15T21:45:31;16.73;;;9.93;;
60078;SDS011;45951;45.824;8.824;2023-02-15T21:51:50;17.52;;;9.80;;
60078;SDS011;45951;45.824;8.824;2023-02-15T21:58:19;14.57;;;8.93;;
60078;SDS011;45951;45.824;8.824;2023-02-15T22:04:27;21.55;;;11.38;;
60078;SDS011;45951;45.824;8.824;2023-02-15T22:10:30;17.08;;;10.73;;
60078;SDS011;45951;45.824;8.824;2023-02-15T22:16:31;17.27;;;9.80;;
60078;SDS011;45951;45.824;8.824;2023-02-15T22:22:31;19.83;;;10.43;;
60078;SDS011;45951;45.824;8.824;2023-02-15T22:28:39;18.35;;;10.48;;
60078;SDS011;45951;45.824;8.824;2023-02-15T22:34:40;18.30;;;10.00;;
60078;SDS011;45951;45.824;8.824;2023-02-15T22:40:41;20.33;;;10.48;;
60078;SDS011;45951;45.824;8.824;2023-02-15T22:46:41;17.87;;;10.07;;
60078;SDS011;45951;45.824;8.824;2023-02-15T22:52:41;16.77;;;10.07;;
60078;SDS011;45951;45.824;8.824;2023-02-15T22:58:42;17.52;;;9.77;;
60078;SDS011;45951;45.824;8.824;2023-02-15T23:04:42;16.53;;;9.97;;
60078;SDS011;45951;45.824;8.824;2023-02-15T23:10:43;16.80;;;10.48;;
60078;SDS011;45951;45.824;8.824;2023-02-15T23:16:45;19.23;;;10.15;;
60078;SDS011;45951;45.824;8.824;2023-02-15T23:22:46;17.52;;;9.63;;
60078;SDS011;45951;45.824;8.824;2023-02-15T23:28:46;14.53;;;9.17;;
60078;SDS011;45951;45.824;8.824;2023-02-15T23:34:47;16.33;;;9.63;;
60078;SDS011;45951;45.824;8.824;2023-02-15T23:40:49;16.75;;;9.25;;
60078;SDS011;45951;45.824;8.824;2023-02-15T23:47:20;15.98;;;8.43;;
60078;SDS011;45951;45.824;8.824;2023-02-15T23:53:42;15.38;;;8.30;;
60078;SDS011;45951;45.824;8.824;2023-02-15T23:59:42;12.10;;;7.38;;
